Time;durP1;ratioP1;P1;durP2;ratioP2;P2;SDS_P1;SDS_P2;PMS_P1;PMS_P2;Temp;Humidity;BMP_temperature;BMP_pressure;BME280_temperature;BME280_humidity;BME280_pressure;Samples;Min_cycle;Max_cycle;Signal;HPM_P1;HPM_P2
2023/05/28 00:01:03;;;;;;;;;13.00;13.00;;;;;18.03;52.08;100876.34;5037528;28;45299;-80
2023/05/28 00:03:31;;;;;;;;;16.00;16.00;;;;;17.99;52.50;100882.78;5038290;28;45272;-73
2023/05/28 00:05:59;;;;;;;;;11.25;11.25;;;;;17.95;52.56;100875.97;5041762;28;46084;-81
2023/05/28 00:08:25;;;;;;;;;12.25;12.25;;;;;17.92;52.88;100882.31;5043597;28;45335;-80
2023/05/28 00:10:51;;;;;;;;;10.50;10.50;;;;;17.89;52.96;100882.53;5038731;28;45359;-79
2023/05/28 00:13:17;;;;;;;;;12.50;12.50;;;;;17.82;53.42;100867.94;5052377;28;45345;-77
2023/05/28 00:15:44;;;;;;;;;12.50;12.50;;;;;17.79;53.81;100870.78;5034714;28;47280;-80
2023/05/28 00:18:11;;;;;;;;;14.00;14.00;;;;;17.72;53.89;100865.03;5036579;28;45287;-80
2023/05/28 00:20:37;;;;;;;;;11.75;11.00;;;;;17.67;54.22;100862.66;5036685;28;45478;-80
2023/05/28 00:23:03;;;;;;;;;14.00;14.00;;;;;17.67;54.18;100860.00;5037143;28;45339;-78
2023/05/28 00:25:28;;;;;;;;;13.25;13.25;;;;;17.60;54.60;100861.38;5035272;28;47525;-79
2023/05/28 00:27:53;;;;;;;;;11.50;11.50;;;;;17.59;54.59;100865.00;5037142;28;45420;-81
2023/05/28 00:30:19;;;;;;;;;14.00;14.00;;;;;17.58;55.27;100862.44;5037377;28;45332;-79
2023/05/28 00:32:45;;;;;;;;;14.75;14.75;;;;;17.51;55.13;100857.53;5037486;28;45410;-76
2023/05/28 00:35:10;;;;;;;;;13.00;13.00;;;;;17.48;55.58;100856.84;5036910;28;46182;-80
2023/05/28 00:37:35;;;;;;;;;12.25;12.25;;;;;17.46;55.90;100853.44;5037733;28;45146;-75
2023/05/28 00:40:02;;;;;;;;;10.00;10.00;;;;;17.42;56.23;100857.25;5037825;28;45199;-79
2023/05/28 00:42:27;;;;;;;;;13.75;13.50;;;;;17.37;56.22;100852.22;5038197;28;45527;-80
2023/05/28 00:44:52;;;;;;;;;15.50;15.00;;;;;17.30;56.94;100843.81;5035128;28;47332;-71
2023/05/28 00:47:18;;;;;;;;;15.50;15.50;;;;;17.31;57.12;100857.94;5038811;28;45296;-77
2023/05/28 00:49:43;;;;;;;;;15.75;15.75;;;;;17.26;57.74;100863.56;5039799;28;45258;-77
2023/05/28 00:52:10;;;;;;;;;15.50;15.00;;;;;17.19;57.51;100860.44;5041651;28;45601;-76
2023/05/28 00:54:36;;;;;;;;;14.75;14.75;;;;;17.16;58.05;100862.44;5037246;28;46620;-77
2023/05/28 00:57:02;;;;;;;;;16.00;15.00;;;;;17.15;58.32;100860.75;5063322;28;44935;-79
2023/05/28 00:59:28;;;;;;;;;14.50;14.50;;;;;17.11;59.31;100859.22;5049069;28;44842;-75
2023/05/28 01:01:53;;;;;;;;;18.00;17.75;;;;;17.10;58.78;100865.50;5044497;28;45351;-74
2023/05/28 01:04:21;;;;;;;;;15.75;15.75;;;;;17.07;59.67;100869.19;5038946;28;45465;-78
2023/05/28 01:06:48;;;;;;;;;15.25;14.25;;;;;17.03;59.62;100865.88;5035719;28;45245;-78
2023/05/28 01:09:13;;;;;;;;;17.00;16.00;;;;;16.94;60.00;100859.28;5037761;28;45242;-77
2023/05/28 01:11:42;;;;;;;;;15.75;15.75;;;;;16.93;60.84;100865.56;5034873;28;45268;-80
2023/05/28 01:14:08;;;;;;;;;22.25;20.50;;;;;16.84;61.11;100858.16;5035718;28;45565;-75
2023/05/28 01:16:35;;;;;;;;;18.50;17.75;;;;;16.80;61.38;100864.63;5035819;28;45400;-77
2023/05/28 01:19:08;;;;;;;;;16.00;15.00;;;;;16.75;62.15;100864.88;5036264;28;45121;-78
2023/05/28 01:21:38;;;;;;;;;17.75;17.25;;;;;16.70;62.48;100866.13;5036203;28;45395;-77
2023/05/28 01:24:04;;;;;;;;;16.75;16.75;;;;;16.59;62.79;100864.13;5035462;28;45544;-73
2023/05/28 01:26:30;;;;;;;;;17.25;17.25;;;;;16.60;62.84;100873.81;5035252;28;45442;-78
2023/05/28 01:28:56;;;;;;;;;12.00;12.00;;;;;16.57;63.17;100871.34;5035354;28;45288;-78
2023/05/28 01:31:21;;;;;;;;;17.00;17.00;;;;;16.52;63.29;100870.75;5034104;28;45878;-80
2023/05/28 01:33:47;;;;;;;;;19.25;19.25;;;;;16.48;63.57;100862.97;5035177;28;46020;-78
2023/05/28 01:36:19;;;;;;;;;18.25;16.75;;;;;16.44;62.83;100869.44;5035117;28;45320;-75
2023/05/28 01:38:47;;;;;;;;;15.00;15.00;;;;;16.46;63.81;100867.53;5035366;28;45268;-74
2023/05/28 01:41:14;;;;;;;;;16.25;16.25;;;;;16.46;64.16;100875.50;5035419;28;45505;-74
2023/05/28 01:43:40;;;;;;;;;16.25;16.25;;;;;16.47;64.09;100876.38;5035091;28;45329;-77
2023/05/28 01:46:06;;;;;;;;;15.00;14.25;;;;;16.41;63.99;100869.63;5038225;28;45278;-75
2023/05/28 01:48:32;;;;;;;;;17.75;17.50;;;;;16.43;64.05;100877.47;5042698;28;45322;-75
2023/05/28 01:50:57;;;;;;;;;20.25;20.25;;;;;16.42;64.39;100879.28;5040541;28;45216;-76
2023/05/28 01:53:22;;;;;;;;;19.00;17.50;;;;;16.38;64.44;100867.16;5038072;28;46090;-79
2023/05/28 01:55:48;;;;;;;;;17.50;17.50;;;;;16.41;65.02;100869.63;5035186;28;45454;-79
2023/05/28 01:58:13;;;;;;;;;13.50;13.25;;;;;16.27;65.01;100843.03;5035168;28;45201;-73
2023/05/28 02:00:46;;;;;;;;;13.50;13.50;;;;;16.37;65.49;100862.78;5035279;28;45665;-78
2023/05/28 02:03:12;;;;;;;;;15.75;14.75;;;;;16.32;65.68;100862.19;5035563;28;46342;-80
2023/05/28 02:05:37;;;;;;;;;20.50;19.00;;;;;16.29;65.73;100865.03;5034795;28;51768;-77
2023/05/28 02:08:03;;;;;;;;;21.25;20.50;;;;;16.26;66.02;100863.41;5050362;28;45469;-77
2023/05/28 02:10:29;;;;;;;;;18.50;17.75;;;;;16.19;65.96;100860.28;5035342;28;45239;-74
2023/05/28 02:12:54;;;;;;;;;15.50;15.50;;;;;16.12;65.86;100861.59;5033351;28;47311;-78
2023/05/28 02:15:21;;;;;;;;;15.25;15.25;;;;;16.11;66.69;100856.38;5034781;28;45355;-78
2023/05/28 02:17:47;;;;;;;;;19.75;19.75;;;;;16.14;66.46;100870.31;5050656;28;45328;-75
2023/05/28 02:20:13;;;;;;;;;18.75;18.50;;;;;16.12;67.02;100877.53;5035674;28;45393;-78
2023/05/28 02:22:38;;;;;;;;;18.25;17.25;;;;;16.01;66.90;100862.22;5035527;28;45400;-78
2023/05/28 02:25:05;;;;;;;;;22.25;21.25;;;;;16.00;67.42;100868.47;5036368;28;45428;-79
2023/05/28 02:27:30;;;;;;;;;17.00;16.75;;;;;16.00;67.57;100864.97;5037448;28;45409;-79
2023/05/28 02:29:55;;;;;;;;;16.50;16.50;;;;;15.96;67.49;100872.25;5035563;28;46045;-79
2023/05/28 02:32:21;;;;;;;;;20.75;20.00;;;;;15.90;68.15;100862.88;5037255;28;46267;-78
2023/05/28 02:34:46;;;;;;;;;22.25;22.25;;;;;15.89;68.52;100876.19;5035565;28;45494;-79
2023/05/28 02:37:12;;;;;;;;;20.75;20.00;;;;;15.89;68.34;100874.38;5035550;28;45325;-76
2023/05/28 02:39:37;;;;;;;;;12.25;12.25;;;;;15.84;68.37;100863.16;5035606;28;45661;-79
2023/05/28 02:42:02;;;;;;;;;13.50;13.50;;;;;15.86;68.69;100871.03;5037844;28;46154;-76
2023/05/28 02:44:28;;;;;;;;;22.75;19.50;;;;;15.83;69.00;100869.41;5039977;28;45291;-79
2023/05/28 02:46:53;;;;;;;;;19.50;19.50;;;;;15.77;68.88;100875.94;5042734;28;44777;-71
2023/05/28 02:49:18;;;;;;;;;14.00;14.00;;;;;15.80;69.14;100882.00;5038289;28;45319;-73
2023/05/28 02:51:44;;;;;;;;;16.00;16.00;;;;;15.77;69.21;100881.25;5035896;28;45269;-74
2023/05/28 02:54:09;;;;;;;;;17.25;17.25;;;;;15.72;69.08;100863.88;5034368;28;45283;-74
2023/05/28 02:56:34;;;;;;;;;21.50;21.50;;;;;15.67;69.11;100857.97;5034339;28;45824;-75
2023/05/28 02:59:00;;;;;;;;;15.00;15.00;;;;;15.68;69.48;100863.19;5033285;28;45515;-76
2023/05/28 03:01:26;;;;;;;;;19.50;18.50;;;;;15.69;69.71;100867.56;5033985;28;49015;-75
2023/05/28 03:03:52;;;;;;;;;19.75;18.00;;;;;15.68;69.71;100857.91;5033021;28;45396;-77
2023/05/28 03:06:17;;;;;;;;;19.75;19.75;;;;;15.67;69.41;100861.50;5034183;28;45450;-74
2023/05/28 03:08:43;;;;;;;;;24.25;23.50;;;;;15.67;69.46;100861.50;5037895;28;45434;-81
2023/05/28 03:11:08;;;;;;;;;21.75;21.75;;;;;15.71;69.66;100867.47;5036285;28;47207;-76
2023/05/28 03:13:33;;;;;;;;;17.75;17.75;;;;;15.68;69.79;100871.16;5037451;28;45350;-76
2023/05/28 03:15:59;;;;;;;;;21.75;19.50;;;;;15.65;69.87;100868.69;5053094;28;45297;-77
2023/05/28 03:18:24;;;;;;;;;20.75;20.75;;;;;15.64;69.88;100872.28;5037777;28;45633;-80
2023/05/28 03:20:50;;;;;;;;;22.50;22.50;;;;;15.60;69.82;100863.63;5036094;28;46199;-75
2023/05/28 03:23:16;;;;;;;;;22.00;22.00;;;;;15.61;69.55;100865.34;5037848;28;45207;-80
2023/05/28 03:25:41;;;;;;;;;19.50;19.50;;;;;15.61;69.47;100864.50;5036507;28;45286;-78
2023/05/28 03:28:06;;;;;;;;;21.25;19.00;;;;;15.58;70.14;100854.06;5038739;28;45216;-79
2023/05/28 03:30:32;;;;;;;;;20.75;20.50;;;;;15.59;70.50;100867.22;5037646;28;45326;-79
2023/05/28 03:32:57;;;;;;;;;23.25;21.25;;;;;15.58;70.33;100870.81;5037334;28;45403;-77
2023/05/28 03:35:22;;;;;;;;;18.25;18.25;;;;;15.61;70.04;100867.16;5036963;28;45216;-76
2023/05/28 03:37:48;;;;;;;;;21.25;20.50;;;;;15.62;69.98;100869.69;5036970;28;45978;-73
2023/05/28 03:40:13;;;;;;;;;19.75;19.75;;;;;15.59;69.83;100871.69;5036270;28;58286;-75
2023/05/28 03:42:39;;;;;;;;;20.25;20.25;;;;;15.48;70.15;100857.25;5036919;28;45395;-78
2023/05/28 03:45:06;;;;;;;;;22.25;22.25;;;;;15.47;70.68;100868.78;5036779;28;45247;-79
2023/05/28 03:47:32;;;;;;;;;20.00;19.50;;;;;15.40;70.65;100862.13;5037136;28;45265;-77
2023/05/28 03:49:58;;;;;;;;;17.00;15.25;;;;;15.39;70.80;100862.19;5052040;28;47284;-78
2023/05/28 03:52:24;;;;;;;;;24.00;22.25;;;;;15.29;70.92;100851.25;5036729;28;45429;-74
2023/05/28 03:54:50;;;;;;;;;23.00;23.00;;;;;15.35;71.19;100866.78;5037035;28;45350;-72
2023/05/28 03:57:15;;;;;;;;;24.50;24.50;;;;;15.33;71.18;100868.69;5037197;28;45292;-79
2023/05/28 03:59:40;;;;;;;;;23.00;21.75;;;;;15.30;71.87;100875.03;5036557;28;45427;-77
2023/05/28 04:02:06;;;;;;;;;18.25;17.50;;;;;15.27;71.28;100875.19;5036701;28;45369;-76
2023/05/28 04:04:31;;;;;;;;;21.00;20.50;;;;;15.25;71.53;100866.47;5036786;28;45220;-74
2023/05/28 04:06:56;;;;;;;;;20.50;20.25;;;;;15.26;71.25;100868.19;5036895;28;45236;-75
2023/05/28 04:09:22;;;;;;;;;21.00;21.00;;;;;15.31;71.96;100873.22;5036437;28;47141;-77
2023/05/28 04:11:47;;;;;;;;;21.75;21.75;;;;;15.29;71.68;100875.97;5037040;28;45356;-77
2023/05/28 04:14:13;;;;;;;;;22.00;20.50;;;;;15.22;72.49;100869.28;5036739;28;45281;-79
2023/05/28 04:16:38;;;;;;;;;21.25;21.25;;;;;15.15;72.14;100871.41;5036959;28;45615;-76
2023/05/28 04:19:04;;;;;;;;;20.75;20.75;;;;;15.21;72.66;100882.63;5036706;28;45351;-74
2023/05/28 04:21:30;;;;;;;;;22.75;22.25;;;;;15.19;72.30;100874.75;5036843;28;45316;-79
2023/05/28 04:23:55;;;;;;;;;19.50;19.25;;;;;15.12;72.79;100865.44;5037059;28;45331;-81
2023/05/28 04:26:22;;;;;;;;;25.75;23.75;;;;;15.04;73.03;100864.06;5037479;28;45498;-80
2023/05/28 04:28:48;;;;;;;;;17.75;17.75;;;;;15.02;72.81;100858.00;5037318;28;45509;-78
2023/05/28 04:31:13;;;;;;;;;25.75;24.75;;;;;15.14;72.83;100882.09;5046726;28;45279;-76
2023/05/28 04:33:39;;;;;;;;;21.50;20.75;;;;;15.15;72.92;100886.47;5049500;28;44789;-75
2023/05/28 04:36:04;;;;;;;;;20.25;20.25;;;;;15.13;72.63;100872.44;5045407;28;45408;-78
2023/05/28 04:38:31;;;;;;;;;20.50;20.50;;;;;15.23;72.82;100892.19;5040038;28;46286;-78
2023/05/28 04:41:04;;;;;;;;;22.25;20.75;;;;;15.14;72.41;100880.28;5035697;28;45355;-79
2023/05/28 04:43:30;;;;;;;;;22.00;21.50;;;;;15.19;72.47;100894.16;5035812;28;45252;-74
2023/05/28 04:45:58;;;;;;;;;21.50;21.50;;;;;15.19;72.33;100880.91;5036287;28;45311;-80
2023/05/28 04:48:23;;;;;;;;;20.25;20.00;;;;;15.12;72.48;100879.53;5035641;28;46622;-77
2023/05/28 04:50:50;;;;;;;;;20.25;20.25;;;;;15.21;72.34;100893.22;5036160;28;45246;-80
2023/05/28 04:53:15;;;;;;;;;20.75;20.75;;;;;15.18;72.41;100897.75;5035927;28;45422;-77
2023/05/28 04:55:41;;;;;;;;;17.75;17.25;;;;;15.14;72.65;100892.72;5035840;28;45390;-80
2023/05/28 04:58:07;;;;;;;;;20.00;20.00;;;;;15.12;72.40;100894.59;5035646;28;45422;-77
2023/05/28 05:00:34;;;;;;;;;22.50;21.25;;;;;15.11;73.04;100890.22;5034258;28;45634;-80
2023/05/28 05:03:00;;;;;;;;;20.25;20.25;;;;;15.19;72.66;100899.44;5036289;28;45269;-80
2023/05/28 05:05:25;;;;;;;;;23.00;22.25;;;;;15.26;72.16;100891.16;5036306;28;45349;-78
2023/05/28 05:07:51;;;;;;;;;23.75;23.75;;;;;15.24;72.31;100875.38;5035501;28;50798;-78
2023/05/28 05:10:17;;;;;;;;;25.00;24.25;;;;;15.36;71.94;100881.75;5036166;28;45233;-79
2023/05/28 05:12:42;;;;;;;;;21.50;21.50;;;;;15.50;71.47;100896.06;5036054;28;45235;-79
2023/05/28 05:15:08;;;;;;;;;22.00;22.00;;;;;15.55;71.57;100889.56;5036247;28;45309;-78
2023/05/28 05:17:34;;;;;;;;;21.25;21.25;;;;;15.67;70.71;100893.31;5036697;28;46531;-81
2023/05/28 05:20:04;;;;;;;;;23.75;23.75;;;;;15.69;70.62;100901.16;5036530;28;45320;-80
2023/05/28 05:22:30;;;;;;;;;24.50;24.50;;;;;15.83;70.30;100903.03;5034644;28;45306;-78
2023/05/28 05:24:56;;;;;;;;;26.75;25.25;;;;;15.70;69.99;100869.28;5034566;28;45360;-79
2023/05/28 05:27:21;;;;;;;;;22.50;22.50;;;;;16.03;69.83;100909.91;5036272;28;45619;-79
2023/05/28 05:29:46;;;;;;;;;25.50;23.25;;;;;16.08;68.88;100897.22;5035678;28;45320;-80
2023/05/28 05:32:12;;;;;;;;;21.75;21.75;;;;;16.15;68.58;100893.25;5034958;28;45514;-79
2023/05/28 05:34:37;;;;;;;;;25.50;24.50;;;;;16.22;68.61;100893.72;5035559;28;45240;-78
2023/05/28 05:37:03;;;;;;;;;22.50;22.50;;;;;16.19;68.31;100888.59;5036140;28;46249;-80
2023/05/28 05:39:29;;;;;;;;;22.75;22.75;;;;;16.28;67.71;100903.16;5037470;28;45260;-77
2023/05/28 05:41:54;;;;;;;;;22.75;22.50;;;;;16.28;67.55;100889.88;5040576;28;45359;-79
2023/05/28 05:44:20;;;;;;;;;29.00;27.25;;;;;16.40;67.29;100899.75;5040861;28;45184;-78
2023/05/28 05:46:46;;;;;;;;;22.25;21.75;;;;;16.44;67.08;100909.25;5038111;28;46178;-77
2023/05/28 05:49:11;;;;;;;;;23.25;23.25;;;;;16.44;67.03;100909.25;5035539;28;45341;-74
2023/05/28 05:51:37;;;;;;;;;24.00;24.00;;;;;16.47;66.82;100901.09;5035230;28;45256;-76
2023/05/28 05:54:05;;;;;;;;;24.00;22.50;;;;;16.57;66.45;100909.38;5034012;28;45592;-75
2023/05/28 05:56:31;;;;;;;;;23.50;23.00;;;;;16.59;66.32;100911.94;5034865;28;45344;-76
2023/05/28 05:58:58;;;;;;;;;23.75;23.75;;;;;16.50;66.00;100911.53;5035207;28;45233;-76
2023/05/28 06:01:23;;;;;;;;;23.00;22.00;;;;;16.45;66.20;100913.63;5035444;28;45295;-77
2023/05/28 06:03:48;;;;;;;;;20.00;20.00;;;;;16.35;66.21;100915.13;5035087;28;45355;-77
2023/05/28 06:06:14;;;;;;;;;18.50;18.50;;;;;16.31;66.44;100908.28;5035027;28;45271;-80
2023/05/28 06:08:39;;;;;;;;;22.75;22.75;;;;;16.32;66.58;100907.34;5035400;28;45177;-80
2023/05/28 06:11:05;;;;;;;;;24.50;24.50;;;;;16.31;66.88;100913.59;5035725;28;45440;-77
2023/05/28 06:13:31;;;;;;;;;21.00;20.25;;;;;16.29;67.02;100904.84;5035324;28;45367;-79
2023/05/28 06:15:57;;;;;;;;;22.50;22.50;;;;;16.26;67.00;100895.25;5035804;28;45349;-78
2023/05/28 06:18:23;;;;;;;;;26.25;25.00;;;;;16.26;66.76;100897.91;5045099;28;45206;-78
2023/05/28 06:20:49;;;;;;;;;25.75;24.50;;;;;16.30;66.73;100888.00;5060232;28;45317;-79
2023/05/28 06:23:15;;;;;;;;;25.00;24.25;;;;;16.36;66.72;100898.25;5041472;28;45280;-77
2023/05/28 06:25:41;;;;;;;;;24.50;22.75;;;;;16.32;66.77;100910.81;5037248;28;45334;-81
2023/05/28 06:28:07;;;;;;;;;25.25;25.25;;;;;16.24;66.53;100907.78;5035346;28;45309;-80
2023/05/28 06:30:32;;;;;;;;;23.50;23.50;;;;;16.25;66.53;100909.47;5035887;28;45244;-79
2023/05/28 06:32:57;;;;;;;;;21.50;21.50;;;;;16.25;66.54;100919.25;5035890;28;45261;-76
2023/05/28 06:35:23;;;;;;;;;24.75;24.75;;;;;16.25;67.00;100908.63;5034848;28;46342;-77
2023/05/28 06:37:48;;;;;;;;;23.00;22.75;;;;;16.24;66.81;100914.91;5034932;28;45304;-79
2023/05/28 06:40:14;;;;;;;;;24.25;24.00;;;;;16.24;66.83;100898.97;5035472;28;45442;-74
2023/05/28 06:42:39;;;;;;;;;24.25;24.00;;;;;16.24;66.90;100899.81;5037669;28;45736;-76
2023/05/28 06:45:06;;;;;;;;;21.75;20.50;;;;;16.28;67.09;100897.84;5039227;28;45447;-77
2023/05/28 06:47:31;;;;;;;;;26.25;26.25;;;;;16.34;66.74;100903.63;5038632;28;45404;-76
2023/05/28 06:49:56;;;;;;;;;26.50;26.50;;;;;16.44;66.50;100914.56;5041878;28;45406;-76
2023/05/28 06:52:22;;;;;;;;;25.00;25.00;;;;;16.50;66.78;100916.00;5042218;28;46706;-75
2023/05/28 06:54:47;;;;;;;;;24.00;24.00;;;;;16.52;66.37;100910.59;5040630;28;45471;-72
2023/05/28 06:57:13;;;;;;;;;24.75;24.75;;;;;16.58;66.19;100915.53;5054697;28;45330;-75
2023/05/28 06:59:38;;;;;;;;;24.50;24.50;;;;;16.65;65.84;100920.41;5041837;28;45496;-72
2023/05/28 07:02:03;;;;;;;;;25.00;25.00;;;;;16.66;65.84;100910.59;5038633;28;45374;-73
2023/05/28 07:04:29;;;;;;;;;22.25;22.25;;;;;16.67;65.21;100904.34;5040895;28;47688;-77
2023/05/28 07:06:54;;;;;;;;;25.75;25.75;;;;;16.72;65.25;100912.06;5038553;28;45347;-75
2023/05/28 07:09:20;;;;;;;;;25.50;23.75;;;;;16.83;65.01;100927.31;5039473;28;45434;-80
2023/05/28 07:11:45;;;;;;;;;23.25;23.25;;;;;16.83;65.27;100919.34;5038806;28;45245;-81
2023/05/28 07:14:11;;;;;;;;;22.50;21.50;;;;;16.93;64.96;100916.03;5040384;28;46271;-79
2023/05/28 07:16:36;;;;;;;;;24.00;24.00;;;;;17.01;64.82;100920.06;5037150;28;45359;-81
2023/05/28 07:19:01;;;;;;;;;25.25;24.75;;;;;17.03;64.51;100919.03;5038249;28;45308;-71
2023/05/28 07:21:27;;;;;;;;;23.75;22.75;;;;;17.12;64.39;100924.72;5038632;28;45202;-76
2023/05/28 07:23:52;;;;;;;;;21.50;18.75;;;;;17.12;64.41;100922.06;5037780;28;46451;-78
2023/05/28 07:26:18;;;;;;;;;20.75;20.25;;;;;17.23;64.25;100925.75;5036249;28;45314;-77
2023/05/28 07:28:43;;;;;;;;;22.50;22.50;;;;;17.28;64.05;100925.47;5037396;28;45830;-76
2023/05/28 07:31:09;;;;;;;;;24.25;23.25;;;;;17.34;63.68;100924.22;5037340;28;45250;-79
2023/05/28 07:33:35;;;;;;;;;24.25;24.25;;;;;17.41;63.62;100919.38;5037225;28;45898;-80
2023/05/28 07:36:01;;;;;;;;;24.25;23.75;;;;;17.53;63.51;100918.56;5036966;28;45593;-79
2023/05/28 07:38:26;;;;;;;;;23.25;23.25;;;;;17.56;63.07;100909.56;5036939;28;45338;-78
2023/05/28 07:40:51;;;;;;;;;21.50;21.50;;;;;17.62;63.09;100917.97;5052556;28;45587;-80
2023/05/28 07:43:17;;;;;;;;;23.00;23.00;;;;;17.74;63.16;100912.81;5037255;28;45360;-76
2023/05/28 07:45:42;;;;;;;;;26.00;25.75;;;;;17.78;62.93;100917.84;5037154;28;45370;-77
2023/05/28 07:48:07;;;;;;;;;18.25;18.25;;;;;17.85;62.13;100917.44;5037281;28;45330;-78
2023/05/28 07:50:33;;;;;;;;;22.00;22.00;;;;;17.94;62.08;100922.16;5037276;28;45315;-76
2023/05/28 07:53:01;;;;;;;;;23.75;23.75;;;;;17.98;61.90;100921.00;5037410;28;46411;-75
2023/05/28 07:55:27;;;;;;;;;23.50;23.50;;;;;18.03;61.88;100912.75;5036606;28;45424;-72
2023/05/28 07:57:52;;;;;;;;;22.00;22.00;;;;;18.14;61.33;100922.69;5037292;28;45171;-74
2023/05/28 08:00:17;;;;;;;;;24.00;23.00;;;;;18.20;61.31;100914.28;5036040;28;45598;-71
2023/05/28 08:02:44;;;;;;;;;24.25;24.25;;;;;18.29;61.23;100920.81;5037285;28;45422;-76
2023/05/28 08:05:09;;;;;;;;;23.25;22.25;;;;;18.37;60.77;100910.47;5041682;28;45217;-73
2023/05/28 08:07:35;;;;;;;;;16.00;16.00;;;;;18.40;60.82;100913.78;5043810;28;45248;-70
2023/05/28 08:10:01;;;;;;;;;19.00;18.00;;;;;18.48;60.47;100921.25;5043239;28;45365;-74
2023/05/28 08:12:27;;;;;;;;;20.25;19.00;;;;;18.54;60.38;100912.84;5040472;28;46533;-77
2023/05/28 08:14:52;;;;;;;;;14.00;14.00;;;;;18.58;59.81;100912.63;5036738;28;45343;-74
2023/05/28 08:17:20;;;;;;;;;23.25;23.25;;;;;18.66;59.92;100912.94;5036913;28;45458;-77
2023/05/28 08:19:46;;;;;;;;;18.25;18.25;;;;;18.74;59.71;100907.09;5037240;28;45265;-75
2023/05/28 08:22:11;;;;;;;;;25.50;24.25;;;;;18.85;59.57;100909.88;5037452;28;45664;-79
2023/05/28 08:24:37;;;;;;;;;19.00;19.00;;;;;18.88;59.70;100899.00;5038210;28;45328;-81
2023/05/28 08:27:02;;;;;;;;;22.00;21.25;;;;;19.05;59.73;100907.63;5055449;28;45217;-74
2023/05/28 08:29:27;;;;;;;;;20.75;20.25;;;;;19.15;58.84;100905.19;5038947;28;45607;-81
2023/05/28 08:31:53;;;;;;;;;20.50;19.75;;;;;19.28;58.87;100900.66;5039742;28;46335;-81
2023/05/28 08:34:18;;;;;;;;;22.25;21.25;;;;;19.38;58.80;100893.72;5041995;28;45420;-74
2023/05/28 08:36:43;;;;;;;;;18.00;18.00;;;;;19.48;58.05;100896.53;5038864;28;45328;-80
2023/05/28 08:39:09;;;;;;;;;18.25;18.25;;;;;19.55;58.04;100891.63;5036865;28;45538;-74
2023/05/28 08:41:35;;;;;;;;;18.50;18.25;;;;;19.64;57.33;100882.09;5038303;28;46136;-76
2023/05/28 08:44:01;;;;;;;;;16.75;16.75;;;;;19.76;57.33;100891.88;5040185;28;45411;-79
2023/05/28 08:46:30;;;;;;;;;19.75;19.75;;;;;19.84;56.43;100893.94;5040768;28;45338;-76
2023/05/28 08:48:56;;;;;;;;;16.50;16.50;;;;;19.92;56.38;100890.75;5056841;28;45616;-74
2023/05/28 08:51:24;;;;;;;;;15.00;15.00;;;;;19.98;56.63;100888.44;5038372;28;46589;-70
2023/05/28 08:53:51;;;;;;;;;20.25;19.25;;;;;20.06;55.57;100887.88;5038349;28;45157;-75
2023/05/28 08:56:17;;;;;;;;;16.50;16.50;;;;;20.02;55.72;100864.19;5040389;28;45339;-76
2023/05/28 08:58:44;;;;;;;;;18.00;18.00;;;;;20.21;55.11;100885.88;5040916;28;45312;-72
2023/05/28 09:01:09;;;;;;;;;20.50;20.50;;;;;20.31;55.00;100879.84;5040389;28;46173;-72
2023/05/28 09:03:39;;;;;;;;;22.50;21.25;;;;;20.38;54.69;100875.72;5042537;28;45303;-72
2023/05/28 09:06:06;;;;;;;;;16.00;16.00;;;;;20.44;54.39;100877.91;5041365;28;45419;-72
2023/05/28 09:08:32;;;;;;;;;16.25;16.25;;;;;20.46;54.61;100869.75;5039792;28;45364;-77
2023/05/28 09:10:57;;;;;;;;;18.25;17.25;;;;;20.60;54.27;100874.03;5037802;28;45816;-79
2023/05/28 09:13:22;;;;;;;;;29.25;27.00;;;;;20.69;53.77;100881.34;5036515;28;45252;-81
2023/05/28 09:15:52;;;;;;;;;16.00;16.00;;;;;20.76;53.89;100879.88;5036307;28;45339;-80
2023/05/28 09:18:21;;;;;;;;;24.50;23.75;;;;;20.82;53.43;100878.59;5034761;28;45327;-74
2023/05/28 09:20:49;;;;;;;;;21.25;21.25;;;;;20.87;52.88;100879.91;5036111;28;45999;-74
2023/05/28 09:23:18;;;;;;;;;21.75;21.75;;;;;20.93;53.03;100880.41;5036452;28;45385;-74
2023/05/28 09:25:44;;;;;;;;;17.50;17.50;;;;;21.02;53.17;100885.00;5050913;28;45279;-76
2023/05/28 09:28:13;;;;;;;;;15.00;15.00;;;;;21.13;52.92;100876.13;5035587;28;45371;-76
2023/05/28 09:30:39;;;;;;;;;13.00;13.00;;;;;21.23;52.21;100879.78;5036359;28;45366;-78
2023/05/28 09:33:06;;;;;;;;;18.75;18.75;;;;;21.35;52.05;100874.41;5039062;28;45401;-74
2023/05/28 09:35:33;;;;;;;;;14.50;12.75;;;;;21.39;51.31;100863.34;5037873;28;45332;-74
2023/05/28 09:38:06;;;;;;;;;13.50;13.50;;;;;21.49;51.33;100870.59;5037877;28;45182;-75
2023/05/28 09:40:31;;;;;;;;;18.00;17.25;;;;;21.57;51.19;100858.28;5034146;28;46297;-74
2023/05/28 09:42:57;;;;;;;;;13.25;13.25;;;;;21.67;50.74;100860.22;5035665;28;45276;-78
2023/05/28 09:45:27;;;;;;;;;17.00;17.00;;;;;21.77;50.38;100868.34;5035406;28;45216;-79
2023/05/28 09:47:53;;;;;;;;;15.25;15.25;;;;;21.82;49.55;100864.31;5035736;28;45376;-77
2023/05/28 09:50:18;;;;;;;;;13.00;13.00;;;;;21.88;49.30;100855.78;5035068;28;46033;-75
2023/05/28 09:52:45;;;;;;;;;14.00;13.25;;;;;21.99;49.26;100860.22;5040695;28;45357;-73
2023/05/28 09:55:20;;;;;;;;;11.00;11.00;;;;;22.08;49.06;100861.28;5048640;28;44912;-78
2023/05/28 09:58:06;;;;;;;;;11.75;11.75;;;;;22.19;48.56;100865.69;5048299;28;45353;-73
2023/05/28 10:00:34;;;;;;;;;14.25;14.00;;;;;22.25;48.43;100861.66;5058057;28;46910;-77
2023/05/28 10:03:11;;;;;;;;;11.25;11.25;;;;;22.31;48.40;100856.63;5036408;28;45287;-77
2023/05/28 10:05:39;;;;;;;;;12.00;12.00;;;;;22.34;47.51;100850.16;5035544;28;45327;-81
2023/05/28 10:08:05;;;;;;;;;11.50;11.25;;;;;22.47;48.17;100858.03;5035619;28;45652;-80
2023/05/28 10:10:32;;;;;;;;;12.25;12.25;;;;;22.55;47.30;100849.31;5035600;28;46257;-79
2023/05/28 10:13:11;;;;;;;;;14.50;14.00;;;;;22.58;47.42;100841.84;5039911;28;45387;-70
2023/05/28 10:16:06;;;;;;;;;13.75;13.75;;;;;22.67;47.70;100855.44;5040515;28;45429;-78
2023/05/28 10:18:38;;;;;;;;;15.50;15.50;;;;;22.76;47.66;100850.09;5022197;28;45549;-72
2023/05/28 10:21:19;;;;;;;;;14.00;14.00;;;;;22.85;47.17;100842.25;5042835;28;46777;-77
2023/05/28 10:23:46;;;;;;;;;13.25;13.25;;;;;22.94;46.87;100845.94;5044620;28;45398;-80
2023/05/28 10:26:14;;;;;;;;;16.75;16.75;;;;;22.97;46.29;100840.28;5036671;28;45254;-75
2023/05/28 10:28:40;;;;;;;;;12.00;12.00;;;;;23.05;46.75;100845.81;5037843;28;45163;-80
2023/05/28 10:31:07;;;;;;;;;13.25;13.25;;;;;23.09;45.96;100839.19;5039448;28;47253;-77
2023/05/28 10:33:43;;;;;;;;;12.00;12.00;;;;;23.19;46.04;100845.44;5039846;28;45417;-76
2023/05/28 10:36:13;;;;;;;;;10.00;10.00;;;;;23.23;45.29;100840.66;5039720;28;45418;-78
2023/05/28 10:39:04;;;;;;;;;14.25;14.25;;;;;23.28;45.28;100832.19;5039815;28;45236;-79
2023/05/28 10:41:33;;;;;;;;;11.25;11.25;;;;;23.47;44.23;100837.63;5040092;28;45363;-82
2023/05/28 10:44:07;;;;;;;;;10.75;10.75;;;;;23.55;43.93;100828.00;5038956;28;45375;-77
2023/05/28 10:47:00;;;;;;;;;12.50;12.50;;;;;23.67;43.46;100831.38;5042344;28;45417;-78
2023/05/28 10:49:28;;;;;;;;;10.75;10.75;;;;;23.73;41.14;100828.13;5034229;28;45792;-80
2023/05/28 10:51:59;;;;;;;;;9.00;8.75;;;;;23.77;39.13;100830.41;5038882;28;45545;-79
2023/05/28 10:54:37;;;;;;;;;10.00;9.50;;;;;23.81;40.15;100822.91;5039159;28;45377;-78
2023/05/28 10:57:10;;;;;;;;;14.00;14.00;;;;;23.85;40.10;100818.09;5038760;28;45449;-82
2023/05/28 10:59:56;;;;;;;;;15.50;15.50;;;;;23.91;38.23;100826.47;5038856;28;45462;-75
2023/05/28 11:02:27;;;;;;;;;13.75;13.00;;;;;23.91;38.72;100836.34;5038065;28;45408;-80
2023/05/28 11:04:59;;;;;;;;;13.50;13.50;;;;;23.87;38.69;100817.00;5040021;28;45493;-75
2023/05/28 11:07:33;;;;;;;;;11.50;11.50;;;;;23.82;38.88;100807.66;5037012;28;45260;-77